Terminal Aerodrome Forecast
Issued by NWS

Home | Current Version | Previous Version | Text Only | Print | Product List | Glossary On
Versions: 1 2 3 4 5 6 7 8 9 10 11 12 13 14 15 16 17 18 19 20 21 22 23 24 25 26 27 28 29 30 31 32 33 34 35 36 37 38 39 40 41 42 43 44 45 46 47 48 49 50
000
FTUS41 KCTP 191137
TAFUNV
TAF
KUNV 191137Z 1912/2012 04008KT P6SM SCT250
     FM191500 12012KT P6SM BKN200
     FM191800 12011G19KT P6SM SCT040 OVC150
     FM200100 13013G25KT 5SM -RA BR OVC030 WS020/13045KT
     FM200400 09014G24KT 3SM -RA BR OVC010 WS020/13050KT=

USA.gov is the U.S. government's official web portal to all federal, state and local government web resources and services.